sensor_id;sensor_type;location;lat;lon;timestamp;P1;durP1;ratioP1;P2;durP2;ratioP2
71351;SDS011;59159;51.652;4.864;2023-03-14T00:00:09;5.17;;;1.23;;
71351;SDS011;59159;51.652;4.864;2023-03-14T00:02:35;5.65;;;1.15;;
71351;SDS011;59159;51.652;4.864;2023-03-14T00:05:01;4.05;;;1.00;;
71351;SDS011;59159;51.652;4.864;2023-03-14T00:07:31;4.53;;;0.90;;
71351;SDS011;59159;51.652;4.864;2023-03-14T00:10:00;6.53;;;1.30;;
71351;SDS011;59159;51.652;4.864;2023-03-14T00:12:26;5.93;;;1.10;;
71351;SDS011;59159;51.652;4.864;2023-03-14T00:14:52;5.33;;;1.00;;
71351;SDS011;59159;51.652;4.864;2023-03-14T00:17:18;6.28;;;1.00;;
71351;SDS011;59159;51.652;4.864;2023-03-14T00:19:44;3.53;;;1.00;;
71351;SDS011;59159;51.652;4.864;2023-03-14T00:22:10;7.30;;;1.30;;
71351;SDS011;59159;51.652;4.864;2023-03-14T00:24:36;4.10;;;0.90;;
71351;SDS011;59159;51.652;4.864;2023-03-14T00:27:02;4.07;;;1.00;;
71351;SDS011;59159;51.652;4.864;2023-03-14T00:29:28;5.38;;;1.50;;
71351;SDS011;59159;51.652;4.864;2023-03-14T00:31:54;4.83;;;1.00;;
71351;SDS011;59159;51.652;4.864;2023-03-14T00:34:20;5.30;;;1.40;;
71351;SDS011;59159;51.652;4.864;2023-03-14T00:36:46;4.57;;;1.30;;
71351;SDS011;59159;51.652;4.864;2023-03-14T00:39:12;4.40;;;0.70;;
71351;SDS011;59159;51.652;4.864;2023-03-14T00:41:38;3.10;;;0.75;;
71351;SDS011;59159;51.652;4.864;2023-03-14T00:44:04;4.90;;;1.30;;
71351;SDS011;59159;51.652;4.864;2023-03-14T00:46:30;3.28;;;0.88;;
71351;SDS011;59159;51.652;4.864;2023-03-14T00:48:56;4.17;;;0.80;;
71351;SDS011;59159;51.652;4.864;2023-03-14T00:51:22;4.90;;;0.80;;
71351;SDS011;59159;51.652;4.864;2023-03-14T00:53:48;6.10;;;1.05;;
71351;SDS011;59159;51.652;4.864;2023-03-14T00:56:14;3.90;;;0.90;;
71351;SDS011;59159;51.652;4.864;2023-03-14T00:58:40;4.68;;;0.88;;
71351;SDS011;59159;51.652;4.864;2023-03-14T01:01:07;3.40;;;0.70;;
71351;SDS011;59159;51.652;4.864;2023-03-14T01:03:33;3.93;;;1.10;;
71351;SDS011;59159;51.652;4.864;2023-03-14T01:06:06;2.95;;;0.70;;
71351;SDS011;59159;51.652;4.864;2023-03-14T01:08:32;4.22;;;0.90;;
71351;SDS011;59159;51.652;4.864;2023-03-14T01:10:58;4.03;;;0.93;;
71351;SDS011;59159;51.652;4.864;2023-03-14T01:13:24;4.87;;;0.90;;
71351;SDS011;59159;51.652;4.864;2023-03-14T01:15:50;4.80;;;0.70;;
71351;SDS011;59159;51.652;4.864;2023-03-14T01:18:16;5.60;;;0.88;;
71351;SDS011;59159;51.652;4.864;2023-03-14T01:20:42;3.97;;;0.80;;
71351;SDS011;59159;51.652;4.864;2023-03-14T01:23:08;3.83;;;0.90;;
71351;SDS011;59159;51.652;4.864;2023-03-14T01:25:34;4.03;;;0.80;;
71351;SDS011;59159;51.652;4.864;2023-03-14T01:28:06;3.97;;;0.97;;
71351;SDS011;59159;51.652;4.864;2023-03-14T01:30:32;5.63;;;1.00;;
71351;SDS011;59159;51.652;4.864;2023-03-14T01:32:58;3.85;;;0.70;;
71351;SDS011;59159;51.652;4.864;2023-03-14T01:35:24;3.42;;;0.70;;
71351;SDS011;59159;51.652;4.864;2023-03-14T01:37:50;4.47;;;0.90;;
71351;SDS011;59159;51.652;4.864;2023-03-14T01:40:16;3.67;;;0.90;;
71351;SDS011;59159;51.652;4.864;2023-03-14T01:43:00;2.83;;;0.68;;
71351;SDS011;59159;51.652;4.864;2023-03-14T01:48:16;4.18;;;0.73;;
71351;SDS011;59159;51.652;4.864;2023-03-14T01:50:42;4.45;;;1.00;;
71351;SDS011;59159;51.652;4.864;2023-03-14T01:53:08;3.20;;;0.83;;
71351;SDS011;59159;51.652;4.864;2023-03-14T01:55:35;3.70;;;0.80;;
71351;SDS011;59159;51.652;4.864;2023-03-14T01:58:03;3.55;;;0.82;;
71351;SDS011;59159;51.652;4.864;2023-03-14T02:00:30;4.15;;;0.80;;
71351;SDS011;59159;51.652;4.864;2023-03-14T02:03:01;4.97;;;0.73;;
71351;SDS011;59159;51.652;4.864;2023-03-14T02:05:32;4.18;;;0.80;;
71351;SDS011;59159;51.652;4.864;2023-03-14T02:07:59;3.65;;;0.80;;
71351;SDS011;59159;51.652;4.864;2023-03-14T02:10:29;3.77;;;0.77;;
71351;SDS011;59159;51.652;4.864;2023-03-14T02:12:56;4.00;;;0.73;;
71351;SDS011;59159;51.652;4.864;2023-03-14T02:15:22;4.47;;;1.00;;
71351;SDS011;59159;51.652;4.864;2023-03-14T02:17:48;3.20;;;0.70;;
71351;SDS011;59159;51.652;4.864;2023-03-14T02:22:53;4.35;;;0.60;;
71351;SDS011;59159;51.652;4.864;2023-03-14T02:28:05;4.03;;;0.97;;
71351;SDS011;59159;51.652;4.864;2023-03-14T02:30:31;3.85;;;0.80;;
71351;SDS011;59159;51.652;4.864;2023-03-14T02:33:01;2.50;;;0.60;;
71351;SDS011;59159;51.652;4.864;2023-03-14T02:35:29;5.47;;;1.27;;
71351;SDS011;59159;51.652;4.864;2023-03-14T02:40:41;3.25;;;0.65;;
71351;SDS011;59159;51.652;4.864;2023-03-14T02:43:07;5.30;;;1.10;;
71351;SDS011;59159;51.652;4.864;2023-03-14T02:45:40;3.95;;;0.63;;
71351;SDS011;59159;51.652;4.864;2023-03-14T02:48:11;4.07;;;0.90;;
71351;SDS011;59159;51.652;4.864;2023-03-14T02:50:38;4.78;;;0.93;;
71351;SDS011;59159;51.652;4.864;2023-03-14T02:53:04;4.47;;;0.90;;
71351;SDS011;59159;51.652;4.864;2023-03-14T02:55:30;4.47;;;0.68;;
71351;SDS011;59159;51.652;4.864;2023-03-14T02:57:56;5.35;;;0.90;;
71351;SDS011;59159;51.652;4.864;2023-03-14T03:00:22;4.73;;;0.70;;
71351;SDS011;59159;51.652;4.864;2023-03-14T03:02:48;4.13;;;0.68;;
71351;SDS011;59159;51.652;4.864;2023-03-14T03:05:14;3.53;;;0.80;;
71351;SDS011;59159;51.652;4.864;2023-03-14T03:07:40;3.77;;;0.80;;
71351;SDS011;59159;51.652;4.864;2023-03-14T03:10:07;2.78;;;0.60;;
71351;SDS011;59159;51.652;4.864;2023-03-14T03:12:33;3.80;;;0.73;;
71351;SDS011;59159;51.652;4.864;2023-03-14T03:14:59;3.75;;;0.77;;
71351;SDS011;59159;51.652;4.864;2023-03-14T03:17:25;3.60;;;0.80;;
71351;SDS011;59159;51.652;4.864;2023-03-14T03:19:50;2.58;;;0.60;;
71351;SDS011;59159;51.652;4.864;2023-03-14T03:22:16;5.28;;;0.80;;
71351;SDS011;59159;51.652;4.864;2023-03-14T03:24:42;4.60;;;0.97;;
71351;SDS011;59159;51.652;4.864;2023-03-14T03:27:09;4.65;;;0.77;;
71351;SDS011;59159;51.652;4.864;2023-03-14T03:29:35;6.50;;;0.82;;
71351;SDS011;59159;51.652;4.864;2023-03-14T03:32:01;3.97;;;0.80;;
71351;SDS011;59159;51.652;4.864;2023-03-14T03:34:27;4.30;;;0.82;;
71351;SDS011;59159;51.652;4.864;2023-03-14T03:36:55;2.50;;;0.60;;
71351;SDS011;59159;51.652;4.864;2023-03-14T03:39:22;3.95;;;0.80;;
71351;SDS011;59159;51.652;4.864;2023-03-14T03:41:48;3.27;;;0.77;;
71351;SDS011;59159;51.652;4.864;2023-03-14T03:44:14;4.55;;;0.90;;
71351;SDS011;59159;51.652;4.864;2023-03-14T03:46:40;4.10;;;0.70;;
71351;SDS011;59159;51.652;4.864;2023-03-14T03:49:06;5.90;;;0.90;;
71351;SDS011;59159;51.652;4.864;2023-03-14T03:51:32;3.05;;;0.73;;
71351;SDS011;59159;51.652;4.864;2023-03-14T03:53:58;3.03;;;0.68;;
71351;SDS011;59159;51.652;4.864;2023-03-14T03:56:24;2.10;;;0.70;;
71351;SDS011;59159;51.652;4.864;2023-03-14T03:58:50;4.45;;;0.90;;
71351;SDS011;59159;51.652;4.864;2023-03-14T04:01:16;2.95;;;0.68;;
71351;SDS011;59159;51.652;4.864;2023-03-14T04:03:42;3.45;;;1.00;;
71351;SDS011;59159;51.652;4.864;2023-03-14T04:06:09;2.93;;;0.60;;
71351;SDS011;59159;51.652;4.864;2023-03-14T04:08:37;3.00;;;0.82;;
71351;SDS011;59159;51.652;4.864;2023-03-14T04:11:04;3.42;;;0.60;;
71351;SDS011;59159;51.652;4.864;2023-03-14T04:13:31;5.20;;;0.70;;
71351;SDS011;59159;51.652;4.864;2023-03-14T04:15:57;2.83;;;0.60;;
71351;SDS011;59159;51.652;4.864;2023-03-14T04:18:23;3.22;;;0.70;;
71351;SDS011;59159;51.652;4.864;2023-03-14T04:20:56;3.47;;;0.80;;
71351;SDS011;59159;51.652;4.864;2023-03-14T04:23:23;5.18;;;0.90;;
71351;SDS011;59159;51.652;4.864;2023-03-14T04:25:50;5.15;;;0.90;;
71351;SDS011;59159;51.652;4.864;2023-03-14T04:28:16;2.78;;;0.93;;
71351;SDS011;59159;51.652;4.864;2023-03-14T04:30:42;3.77;;;0.80;;
71351;SDS011;59159;51.652;4.864;2023-03-14T04:33:08;4.45;;;0.80;;
71351;SDS011;59159;51.652;4.864;2023-03-14T04:35:34;3.80;;;0.60;;
71351;SDS011;59159;51.652;4.864;2023-03-14T04:38:00;2.87;;;0.70;;
71351;SDS011;59159;51.652;4.864;2023-03-14T04:40:26;5.05;;;0.70;;
71351;SDS011;59159;51.652;4.864;2023-03-14T04:42:52;3.28;;;0.80;;
71351;SDS011;59159;51.652;4.864;2023-03-14T04:45:20;5.27;;;1.00;;
71351;SDS011;59159;51.652;4.864;2023-03-14T04:47:52;4.07;;;0.70;;
71351;SDS011;59159;51.652;4.864;2023-03-14T04:50:18;3.08;;;0.70;;
71351;SDS011;59159;51.652;4.864;2023-03-14T04:52:44;3.40;;;0.73;;
71351;SDS011;59159;51.652;4.864;2023-03-14T04:55:10;3.60;;;0.60;;
71351;SDS011;59159;51.652;4.864;2023-03-14T04:57:38;3.00;;;0.60;;
71351;SDS011;59159;51.652;4.864;2023-03-14T05:00:05;6.40;;;0.77;;
71351;SDS011;59159;51.652;4.864;2023-03-14T05:02:31;4.53;;;1.10;;
71351;SDS011;59159;51.652;4.864;2023-03-14T05:04:57;4.07;;;1.00;;
71351;SDS011;59159;51.652;4.864;2023-03-14T05:07:23;3.55;;;0.60;;
71351;SDS011;59159;51.652;4.864;2023-03-14T05:09:49;2.17;;;0.80;;
71351;SDS011;59159;51.652;4.864;2023-03-14T05:12:15;2.50;;;0.68;;
71351;SDS011;59159;51.652;4.864;2023-03-14T05:14:41;4.30;;;0.70;;
71351;SDS011;59159;51.652;4.864;2023-03-14T05:17:07;3.38;;;0.80;;
71351;SDS011;59159;51.652;4.864;2023-03-14T05:19:34;3.87;;;1.00;;
71351;SDS011;59159;51.652;4.864;2023-03-14T05:22:00;3.65;;;0.75;;
71351;SDS011;59159;51.652;4.864;2023-03-14T05:24:26;3.42;;;0.88;;
71351;SDS011;59159;51.652;4.864;2023-03-14T05:26:52;3.17;;;0.70;;
71351;SDS011;59159;51.652;4.864;2023-03-14T05:29:19;2.72;;;0.70;;
71351;SDS011;59159;51.652;4.864;2023-03-14T05:31:45;3.97;;;0.95;;
71351;SDS011;59159;51.652;4.864;2023-03-14T05:34:11;3.33;;;0.73;;
71351;SDS011;59159;51.652;4.864;2023-03-14T05:36:37;3.92;;;1.00;;
71351;SDS011;59159;51.652;4.864;2023-03-14T05:39:03;3.40;;;1.10;;
71351;SDS011;59159;51.652;4.864;2023-03-14T05:41:29;3.50;;;0.85;;
71351;SDS011;59159;51.652;4.864;2023-03-14T05:43:55;3.13;;;0.87;;
71351;SDS011;59159;51.652;4.864;2023-03-14T05:46:21;4.88;;;1.30;;
71351;SDS011;59159;51.652;4.864;2023-03-14T05:48:47;3.42;;;0.75;;
71351;SDS011;59159;51.652;4.864;2023-03-14T05:51:13;4.57;;;0.93;;
71351;SDS011;59159;51.652;4.864;2023-03-14T05:53:39;4.07;;;0.85;;
71351;SDS011;59159;51.652;4.864;2023-03-14T05:56:07;4.47;;;0.90;;
71351;SDS011;59159;51.652;4.864;2023-03-14T05:58:33;4.87;;;0.83;;
71351;SDS011;59159;51.652;4.864;2023-03-14T06:01:02;4.15;;;1.20;;
71351;SDS011;59159;51.652;4.864;2023-03-14T06:03:29;5.20;;;1.02;;
71351;SDS011;59159;51.652;4.864;2023-03-14T06:05:55;3.28;;;0.90;;
71351;SDS011;59159;51.652;4.864;2023-03-14T06:08:21;4.43;;;0.80;;
71351;SDS011;59159;51.652;4.864;2023-03-14T06:10:47;6.22;;;0.95;;
71351;SDS011;59159;51.652;4.864;2023-03-14T06:13:13;3.38;;;1.02;;
71351;SDS011;59159;51.652;4.864;2023-03-14T06:15:40;5.33;;;1.23;;
71351;SDS011;59159;51.652;4.864;2023-03-14T06:18:06;4.35;;;0.88;;
71351;SDS011;59159;51.652;4.864;2023-03-14T06:20:33;5.05;;;0.93;;
71351;SDS011;59159;51.652;4.864;2023-03-14T06:23:00;4.07;;;0.90;;
71351;SDS011;59159;51.652;4.864;2023-03-14T06:25:27;3.15;;;0.90;;
71351;SDS011;59159;51.652;4.864;2023-03-14T06:27:53;3.67;;;1.13;;
71351;SDS011;59159;51.652;4.864;2023-03-14T06:30:19;4.03;;;0.93;;
71351;SDS011;59159;51.652;4.864;2023-03-14T06:32:45;5.57;;;1.10;;
71351;SDS011;59159;51.652;4.864;2023-03-14T06:35:11;5.07;;;1.05;;
71351;SDS011;59159;51.652;4.864;2023-03-14T06:37:37;5.65;;;0.85;;
71351;SDS011;59159;51.652;4.864;2023-03-14T06:40:03;5.60;;;1.40;;
71351;SDS011;59159;51.652;4.864;2023-03-14T06:42:30;3.00;;;0.90;;
71351;SDS011;59159;51.652;4.864;2023-03-14T06:44:56;2.85;;;0.60;;
71351;SDS011;59159;51.652;4.864;2023-03-14T06:47:23;3.57;;;0.60;;
71351;SDS011;59159;51.652;4.864;2023-03-14T06:49:49;5.10;;;0.70;;
71351;SDS011;59159;51.652;4.864;2023-03-14T06:52:15;2.38;;;0.57;;
71351;SDS011;59159;51.652;4.864;2023-03-14T06:54:41;3.97;;;0.82;;
71351;SDS011;59159;51.652;4.864;2023-03-14T06:57:07;3.80;;;0.90;;
71351;SDS011;59159;51.652;4.864;2023-03-14T06:59:33;4.25;;;0.73;;
71351;SDS011;59159;51.652;4.864;2023-03-14T07:01:59;4.07;;;0.73;;
71351;SDS011;59159;51.652;4.864;2023-03-14T07:04:25;4.87;;;0.70;;
71351;SDS011;59159;51.652;4.864;2023-03-14T07:06:51;2.85;;;0.80;;
71351;SDS011;59159;51.652;4.864;2023-03-14T07:09:17;4.35;;;1.10;;
71351;SDS011;59159;51.652;4.864;2023-03-14T07:11:43;3.03;;;0.77;;
71351;SDS011;59159;51.652;4.864;2023-03-14T07:14:09;2.28;;;0.68;;
71351;SDS011;59159;51.652;4.864;2023-03-14T07:16:35;2.45;;;0.63;;
71351;SDS011;59159;51.652;4.864;2023-03-14T07:19:02;4.85;;;0.80;;
71351;SDS011;59159;51.652;4.864;2023-03-14T07:21:28;3.23;;;0.93;;
71351;SDS011;59159;51.652;4.864;2023-03-14T07:23:54;2.53;;;0.60;;
71351;SDS011;59159;51.652;4.864;2023-03-14T07:26:20;3.10;;;0.60;;
71351;SDS011;59159;51.652;4.864;2023-03-14T07:28:46;3.67;;;0.83;;
71351;SDS011;59159;51.652;4.864;2023-03-14T07:31:12;2.65;;;0.60;;
71351;SDS011;59159;51.652;4.864;2023-03-14T07:33:39;4.35;;;0.80;;
71351;SDS011;59159;51.652;4.864;2023-03-14T07:36:05;3.07;;;0.70;;
71351;SDS011;59159;51.652;4.864;2023-03-14T07:38:31;2.83;;;0.60;;
71351;SDS011;59159;51.652;4.864;2023-03-14T07:40:57;3.53;;;1.00;;
71351;SDS011;59159;51.652;4.864;2023-03-14T07:43:24;4.80;;;1.17;;
71351;SDS011;59159;51.652;4.864;2023-03-14T07:45:50;2.60;;;0.70;;
71351;SDS011;59159;51.652;4.864;2023-03-14T07:48:16;3.47;;;0.60;;
71351;SDS011;59159;51.652;4.864;2023-03-14T07:50:42;1.80;;;0.60;;
71351;SDS011;59159;51.652;4.864;2023-03-14T07:53:08;3.87;;;0.80;;
71351;SDS011;59159;51.652;4.864;2023-03-14T07:55:34;2.42;;;0.60;;
71351;SDS011;59159;51.652;4.864;2023-03-14T07:58:00;1.88;;;0.50;;
71351;SDS011;59159;51.652;4.864;2023-03-14T08:00:26;2.40;;;0.60;;
71351;SDS011;59159;51.652;4.864;2023-03-14T08:02:53;2.25;;;0.60;;
71351;SDS011;59159;51.652;4.864;2023-03-14T08:05:22;3.15;;;0.70;;
71351;SDS011;59159;51.652;4.864;2023-03-14T08:07:48;3.03;;;0.70;;
71351;SDS011;59159;51.652;4.864;2023-03-14T08:10:14;3.40;;;0.73;;
71351;SDS011;59159;51.652;4.864;2023-03-14T08:12:49;2.08;;;0.50;;
71351;SDS011;59159;51.652;4.864;2023-03-14T08:15:16;2.03;;;0.40;;
71351;SDS011;59159;51.652;4.864;2023-03-14T08:17:42;1.93;;;0.60;;
71351;SDS011;59159;51.652;4.864;2023-03-14T08:20:08;2.17;;;0.68;;
71351;SDS011;59159;51.652;4.864;2023-03-14T08:22:36;2.20;;;0.63;;
71351;SDS011;59159;51.652;4.864;2023-03-14T08:25:03;2.10;;;0.60;;
71351;SDS011;59159;51.652;4.864;2023-03-14T08:27:29;3.20;;;0.65;;
71351;SDS011;59159;51.652;4.864;2023-03-14T08:29:55;2.88;;;0.52;;
71351;SDS011;59159;51.652;4.864;2023-03-14T08:32:22;2.90;;;0.63;;
71351;SDS011;59159;51.652;4.864;2023-03-14T08:34:48;2.63;;;0.50;;
71351;SDS011;59159;51.652;4.864;2023-03-14T08:37:14;2.00;;;0.57;;
71351;SDS011;59159;51.652;4.864;2023-03-14T08:39:40;3.17;;;0.63;;
71351;SDS011;59159;51.652;4.864;2023-03-14T08:42:06;3.40;;;0.70;;
71351;SDS011;59159;51.652;4.864;2023-03-14T08:44:32;2.92;;;0.70;;
71351;SDS011;59159;51.652;4.864;2023-03-14T08:46:58;3.00;;;0.70;;
71351;SDS011;59159;51.652;4.864;2023-03-14T08:49:24;1.63;;;0.50;;
71351;SDS011;59159;51.652;4.864;2023-03-14T08:51:50;2.85;;;0.50;;
71351;SDS011;59159;51.652;4.864;2023-03-14T08:54:16;1.75;;;0.60;;
71351;SDS011;59159;51.652;4.864;2023-03-14T08:56:43;2.83;;;0.52;;
71351;SDS011;59159;51.652;4.864;2023-03-14T08:59:09;2.93;;;0.60;;
71351;SDS011;59159;51.652;4.864;2023-03-14T09:01:36;2.40;;;0.75;;
71351;SDS011;59159;51.652;4.864;2023-03-14T09:04:02;2.58;;;0.60;;
71351;SDS011;59159;51.652;4.864;2023-03-14T09:06:28;2.27;;;0.60;;
71351;SDS011;59159;51.652;4.864;2023-03-14T09:08:54;2.10;;;0.50;;
71351;SDS011;59159;51.652;4.864;2023-03-14T09:11:20;2.25;;;0.55;;
71351;SDS011;59159;51.652;4.864;2023-03-14T09:13:46;2.23;;;0.60;;
71351;SDS011;59159;51.652;4.864;2023-03-14T09:16:13;3.22;;;0.50;;
71351;SDS011;59159;51.652;4.864;2023-03-14T09:18:39;3.65;;;0.65;;
71351;SDS011;59159;51.652;4.864;2023-03-14T09:21:05;3.25;;;0.70;;
71351;SDS011;59159;51.652;4.864;2023-03-14T09:23:31;2.47;;;0.60;;
71351;SDS011;59159;51.652;4.864;2023-03-14T09:25:58;3.05;;;0.65;;
71351;SDS011;59159;51.652;4.864;2023-03-14T09:28:24;1.23;;;0.45;;
71351;SDS011;59159;51.652;4.864;2023-03-14T09:30:51;3.23;;;0.60;;
71351;SDS011;59159;51.652;4.864;2023-03-14T09:33:17;2.58;;;0.80;;
71351;SDS011;59159;51.652;4.864;2023-03-14T09:35:43;1.77;;;0.50;;
71351;SDS011;59159;51.652;4.864;2023-03-14T09:38:09;2.17;;;0.50;;
71351;SDS011;59159;51.652;4.864;2023-03-14T09:40:35;2.15;;;0.50;;
71351;SDS011;59159;51.652;4.864;2023-03-14T09:43:03;2.08;;;0.57;;
71351;SDS011;59159;51.652;4.864;2023-03-14T09:45:31;3.15;;;0.50;;
71351;SDS011;59159;51.652;4.864;2023-03-14T09:47:59;2.53;;;0.53;;
71351;SDS011;59159;51.652;4.864;2023-03-14T09:50:26;2.08;;;0.60;;
71351;SDS011;59159;51.652;4.864;2023-03-14T09:52:55;2.85;;;0.60;;
71351;SDS011;59159;51.652;4.864;2023-03-14T09:55:22;3.00;;;0.50;;
71351;SDS011;59159;51.652;4.864;2023-03-14T09:57:49;2.30;;;0.60;;
71351;SDS011;59159;51.652;4.864;2023-03-14T10:00:18;2.22;;;0.50;;
71351;SDS011;59159;51.652;4.864;2023-03-14T10:02:47;2.23;;;0.53;;
71351;SDS011;59159;51.652;4.864;2023-03-14T10:05:19;2.97;;;0.50;;
71351;SDS011;59159;51.652;4.864;2023-03-14T10:07:45;1.90;;;0.55;;
71351;SDS011;59159;51.652;4.864;2023-03-14T10:10:23;2.97;;;0.50;;
71351;SDS011;59159;51.652;4.864;2023-03-14T10:13:23;2.47;;;0.50;;
71351;SDS011;59159;51.652;4.864;2023-03-14T10:15:41;3.03;;;0.60;;
71351;SDS011;59159;51.652;4.864;2023-03-14T10:18:11;2.83;;;0.60;;
71351;SDS011;59159;51.652;4.864;2023-03-14T10:21:01;2.93;;;0.70;;
71351;SDS011;59159;51.652;4.864;2023-03-14T10:23:27;2.10;;;0.60;;
71351;SDS011;59159;51.652;4.864;2023-03-14T10:26:02;2.72;;;0.60;;
71351;SDS011;59159;51.652;4.864;2023-03-14T10:28:30;2.20;;;0.50;;
71351;SDS011;59159;51.652;4.864;2023-03-14T10:30:56;2.95;;;1.05;;
71351;SDS011;59159;51.652;4.864;2023-03-14T10:33:24;1.67;;;0.60;;
71351;SDS011;59159;51.652;4.864;2023-03-14T10:35:55;4.22;;;0.60;;
71351;SDS011;59159;51.652;4.864;2023-03-14T10:38:22;2.33;;;0.57;;
71351;SDS011;59159;51.652;4.864;2023-03-14T10:40:50;3.80;;;0.70;;
71351;SDS011;59159;51.652;4.864;2023-03-14T10:43:27;3.35;;;0.70;;
71351;SDS011;59159;51.652;4.864;2023-03-14T10:46:01;4.40;;;0.67;;
71351;SDS011;59159;51.652;4.864;2023-03-14T10:48:34;3.10;;;0.80;;
71351;SDS011;59159;51.652;4.864;2023-03-14T10:51:03;4.90;;;1.02;;
71351;SDS011;59159;51.652;4.864;2023-03-14T10:53:40;3.90;;;0.60;;
71351;SDS011;59159;51.652;4.864;2023-03-14T10:56:07;2.67;;;0.43;;
71351;SDS011;59159;51.652;4.864;2023-03-14T10:58:35;2.47;;;0.60;;
71351;SDS011;59159;51.652;4.864;2023-03-14T11:03:31;4.53;;;0.70;;
71351;SDS011;59159;51.652;4.864;2023-03-14T11:11:14;2.90;;;0.63;;
71351;SDS011;59159;51.652;4.864;2023-03-14T11:19:14;5.47;;;1.00;;
71351;SDS011;59159;51.652;4.864;2023-03-14T11:21:56;4.55;;;1.15;;
71351;SDS011;59159;51.652;4.864;2023-03-14T11:24:33;3.58;;;0.77;;
71351;SDS011;59159;51.652;4.864;2023-03-14T11:27:08;3.08;;;0.60;;
71351;SDS011;59159;51.652;4.864;2023-03-14T11:29:46;4.13;;;0.90;;
71351;SDS011;59159;51.652;4.864;2023-03-14T11:32:24;4.13;;;0.98;;
71351;SDS011;59159;51.652;4.864;2023-03-14T11:34:54;4.15;;;0.68;;
71351;SDS011;59159;51.652;4.864;2023-03-14T11:37:25;6.77;;;0.80;;
71351;SDS011;59159;51.652;4.864;2023-03-14T11:39:55;4.20;;;0.73;;
71351;SDS011;59159;51.652;4.864;2023-03-14T11:42:22;3.72;;;0.70;;
71351;SDS011;59159;51.652;4.864;2023-03-14T11:44:49;5.60;;;0.90;;
71351;SDS011;59159;51.652;4.864;2023-03-14T11:47:17;7.82;;;0.90;;
71351;SDS011;59159;51.652;4.864;2023-03-14T11:49:48;3.25;;;0.80;;
71351;SDS011;59159;51.652;4.864;2023-03-14T11:57:18;6.43;;;1.38;;
71351;SDS011;59159;51.652;4.864;2023-03-14T12:10:07;8.77;;;1.20;;
71351;SDS011;59159;51.652;4.864;2023-03-14T12:12:33;8.73;;;1.70;;
71351;SDS011;59159;51.652;4.864;2023-03-14T12:15:01;7.35;;;1.27;;
71351;SDS011;59159;51.652;4.864;2023-03-14T12:17:34;9.43;;;1.45;;
71351;SDS011;59159;51.652;4.864;2023-03-14T12:20:17;8.97;;;1.70;;
71351;SDS011;59159;51.652;4.864;2023-03-14T12:22:44;7.88;;;1.58;;
71351;SDS011;59159;51.652;4.864;2023-03-14T12:27:45;8.33;;;1.20;;
71351;SDS011;59159;51.652;4.864;2023-03-14T12:32:40;8.38;;;1.25;;
71351;SDS011;59159;51.652;4.864;2023-03-14T12:35:07;5.77;;;0.97;;
71351;SDS011;59159;51.652;4.864;2023-03-14T12:37:52;6.32;;;1.17;;
71351;SDS011;59159;51.652;4.864;2023-03-14T12:40:26;10.07;;;1.27;;
71351;SDS011;59159;51.652;4.864;2023-03-14T12:42:59;7.90;;;1.27;;
71351;SDS011;59159;51.652;4.864;2023-03-14T12:48:21;7.85;;;1.08;;
71351;SDS011;59159;51.652;4.864;2023-03-14T12:50:55;6.30;;;1.00;;
71351;SDS011;59159;51.652;4.864;2023-03-14T12:56:25;9.27;;;1.52;;
71351;SDS011;59159;51.652;4.864;2023-03-14T13:01:24;9.67;;;1.47;;
71351;SDS011;59159;51.652;4.864;2023-03-14T13:11:47;7.53;;;1.10;;
71351;SDS011;59159;51.652;4.864;2023-03-14T13:14:13;9.32;;;1.33;;
71351;SDS011;59159;51.652;4.864;2023-03-14T13:16:40;5.53;;;0.90;;
71351;SDS011;59159;51.652;4.864;2023-03-14T13:19:15;6.40;;;1.20;;
71351;SDS011;59159;51.652;4.864;2023-03-14T13:21:42;7.55;;;1.15;;
71351;SDS011;59159;51.652;4.864;2023-03-14T13:24:20;5.35;;;1.00;;
71351;SDS011;59159;51.652;4.864;2023-03-14T13:26:46;7.00;;;1.50;;
71351;SDS011;59159;51.652;4.864;2023-03-14T13:29:16;7.88;;;1.55;;
71351;SDS011;59159;51.652;4.864;2023-03-14T13:31:43;7.32;;;1.15;;
71351;SDS011;59159;51.652;4.864;2023-03-14T13:34:10;7.25;;;1.48;;
71351;SDS011;59159;51.652;4.864;2023-03-14T13:36:37;6.90;;;1.10;;
71351;SDS011;59159;51.652;4.864;2023-03-14T13:39:03;5.80;;;1.17;;
71351;SDS011;59159;51.652;4.864;2023-03-14T13:41:30;8.63;;;1.33;;
71351;SDS011;59159;51.652;4.864;2023-03-14T13:44:03;8.27;;;1.30;;
71351;SDS011;59159;51.652;4.864;2023-03-14T13:46:32;6.93;;;1.10;;
71351;SDS011;59159;51.652;4.864;2023-03-14T13:49:01;8.98;;;1.90;;
71351;SDS011;59159;51.652;4.864;2023-03-14T13:51:28;7.60;;;1.13;;
71351;SDS011;59159;51.652;4.864;2023-03-14T13:53:56;8.90;;;1.15;;
71351;SDS011;59159;51.652;4.864;2023-03-14T13:56:24;7.57;;;1.10;;
71351;SDS011;59159;51.652;4.864;2023-03-14T13:58:51;8.13;;;1.52;;
71351;SDS011;59159;51.652;4.864;2023-03-14T14:03:44;6.70;;;1.13;;
71351;SDS011;59159;51.652;4.864;2023-03-14T14:08:58;5.03;;;1.00;;
71351;SDS011;59159;51.652;4.864;2023-03-14T14:11:29;5.05;;;1.05;;
71351;SDS011;59159;51.652;4.864;2023-03-14T14:13:57;7.72;;;1.20;;
71351;SDS011;59159;51.652;4.864;2023-03-14T14:16:24;5.77;;;0.83;;
71351;SDS011;59159;51.652;4.864;2023-03-14T14:18:52;4.55;;;0.75;;
71351;SDS011;59159;51.652;4.864;2023-03-14T14:21:19;7.15;;;1.05;;
71351;SDS011;59159;51.652;4.864;2023-03-14T14:23:46;6.38;;;1.27;;
71351;SDS011;59159;51.652;4.864;2023-03-14T14:26:14;7.80;;;1.37;;
71351;SDS011;59159;51.652;4.864;2023-03-14T14:28:42;7.85;;;1.10;;
71351;SDS011;59159;51.652;4.864;2023-03-14T14:33:43;6.33;;;0.80;;
71351;SDS011;59159;51.652;4.864;2023-03-14T14:36:52;4.57;;;0.88;;
71351;SDS011;59159;51.652;4.864;2023-03-14T14:39:00;7.70;;;1.00;;
71351;SDS011;59159;51.652;4.864;2023-03-14T14:41:27;4.93;;;1.03;;
71351;SDS011;59159;51.652;4.864;2023-03-14T14:43:54;5.47;;;0.90;;
71351;SDS011;59159;51.652;4.864;2023-03-14T14:46:20;3.80;;;0.77;;
71351;SDS011;59159;51.652;4.864;2023-03-14T14:48:47;4.15;;;0.75;;
71351;SDS011;59159;51.652;4.864;2023-03-14T14:51:23;5.97;;;0.80;;
71351;SDS011;59159;51.652;4.864;2023-03-14T14:53:49;5.25;;;0.90;;
71351;SDS011;59159;51.652;4.864;2023-03-14T14:56:17;3.95;;;0.80;;
71351;SDS011;59159;51.652;4.864;2023-03-14T14:58:45;4.27;;;0.87;;
71351;SDS011;59159;51.652;4.864;2023-03-14T15:01:18;3.65;;;0.65;;
71351;SDS011;59159;51.652;4.864;2023-03-14T15:03:46;4.35;;;0.60;;
71351;SDS011;59159;51.652;4.864;2023-03-14T15:06:13;6.40;;;0.90;;
71351;SDS011;59159;51.652;4.864;2023-03-14T15:08:40;4.50;;;1.00;;
71351;SDS011;59159;51.652;4.864;2023-03-14T15:11:08;4.70;;;1.40;;
71351;SDS011;59159;51.652;4.864;2023-03-14T15:13:34;3.35;;;0.68;;
71351;SDS011;59159;51.652;4.864;2023-03-14T15:16:00;5.27;;;0.90;;
71351;SDS011;59159;51.652;4.864;2023-03-14T15:18:27;6.10;;;1.00;;
71351;SDS011;59159;51.652;4.864;2023-03-14T15:20:55;6.70;;;1.00;;
71351;SDS011;59159;51.652;4.864;2023-03-14T15:23:21;4.50;;;0.60;;
71351;SDS011;59159;51.652;4.864;2023-03-14T15:25:47;4.18;;;0.85;;
71351;SDS011;59159;51.652;4.864;2023-03-14T15:30:40;6.43;;;0.80;;
71351;SDS011;59159;51.652;4.864;2023-03-14T15:33:06;3.35;;;0.50;;
71351;SDS011;59159;51.652;4.864;2023-03-14T15:35:33;5.32;;;1.10;;
71351;SDS011;59159;51.652;4.864;2023-03-14T15:38:00;4.00;;;0.63;;
71351;SDS011;59159;51.652;4.864;2023-03-14T15:40:26;4.93;;;0.93;;
71351;SDS011;59159;51.652;4.864;2023-03-14T15:42:52;4.43;;;0.80;;
71351;SDS011;59159;51.652;4.864;2023-03-14T15:45:18;2.88;;;0.63;;
71351;SDS011;59159;51.652;4.864;2023-03-14T15:47:44;5.37;;;1.13;;
71351;SDS011;59159;51.652;4.864;2023-03-14T15:50:10;4.45;;;0.60;;
71351;SDS011;59159;51.652;4.864;2023-03-14T15:52:36;3.88;;;0.85;;
71351;SDS011;59159;51.652;4.864;2023-03-14T15:55:02;3.90;;;0.70;;
71351;SDS011;59159;51.652;4.864;2023-03-14T15:57:28;4.47;;;0.95;;
71351;SDS011;59159;51.652;4.864;2023-03-14T15:59:54;3.42;;;1.15;;